createdAt,value
2023-06-21T00:01:46.433Z,21.02
2023-06-21T00:06:48.468Z,21.45
2023-06-21T00:11:49.980Z,21.26
2023-06-21T00:16:51.383Z,21.42
2023-06-21T00:21:55.449Z,21.47
2023-06-21T00:26:57.174Z,21.55
2023-06-21T00:31:58.773Z,21.61
2023-06-21T00:37:01.661Z,21.42
2023-06-21T00:42:03.296Z,21.46
2023-06-21T00:47:05.702Z,21.39
2023-06-21T00:52:08.678Z,21.29
2023-06-21T00:57:13.451Z,21.35
2023-06-21T01:02:15.442Z,21.24
2023-06-21T01:07:35.692Z,21.08
2023-06-21T01:12:52.595Z,21.17
2023-06-21T01:17:57.995Z,21.03
2023-06-21T01:23:26.926Z,21.05
2023-06-21T01:28:47.401Z,20.91
2023-06-21T01:33:50.192Z,20.92
2023-06-21T01:38:58.312Z,20.82
2023-06-21T01:43:59.931Z,20.76
2023-06-21T01:49:04.419Z,20.66
2023-06-21T01:54:07.048Z,20.63
2023-06-21T01:59:09.604Z,20.66
2023-06-21T02:04:12.380Z,20.62
2023-06-21T02:09:16.471Z,20.65
2023-06-21T02:14:18.148Z,20.77
2023-06-21T02:19:19.747Z,20.71
2023-06-21T02:24:21.663Z,20.65
2023-06-21T02:29:23.315Z,20.80
2023-06-21T02:34:25.808Z,20.87
2023-06-21T02:39:28.668Z,20.88
2023-06-21T02:44:31.102Z,20.84
2023-06-21T02:49:33.054Z,20.77
2023-06-21T02:54:34.752Z,20.83
2023-06-21T02:59:37.397Z,20.78
2023-06-21T03:04:39.194Z,20.73
2023-06-21T03:09:40.658Z,20.62
2023-06-21T03:14:42.602Z,20.58
2023-06-21T03:19:45.218Z,20.54
2023-06-21T03:24:51.382Z,20.61
2023-06-21T03:29:53.018Z,20.65
2023-06-21T03:34:54.674Z,20.64
2023-06-21T03:39:56.525Z,20.68
2023-06-21T03:44:58.060Z,20.52
2023-06-21T03:49:59.604Z,20.55
2023-06-21T04:17:37.592Z,21.16
2023-06-21T04:22:40.727Z,20.88
2023-06-21T04:27:57.672Z,21.02
2023-06-21T04:32:59.774Z,20.76
2023-06-21T04:38:09.737Z,20.87
2023-06-21T04:43:18.205Z,21.10
2023-06-21T04:48:22.556Z,21.06
2023-06-21T04:53:49.261Z,21.25
2023-06-21T04:58:51.549Z,21.34
2023-06-21T05:03:53.155Z,21.67
2023-06-21T05:08:54.847Z,21.98
2023-06-21T05:13:56.642Z,21.41
2023-06-21T05:18:58.432Z,21.48
2023-06-21T05:24:03.186Z,21.83
2023-06-21T05:34:06.315Z,22.76
2023-06-21T05:39:07.910Z,22.47
2023-06-21T05:44:09.864Z,23.30
2023-06-21T05:49:11.562Z,23.29
2023-06-21T05:54:15.348Z,23.64
2023-06-21T05:59:20.162Z,23.58
2023-06-21T06:04:22.011Z,23.93
2023-06-21T06:09:24.474Z,23.69
2023-06-21T06:14:26.601Z,23.67
2023-06-21T06:19:28.120Z,23.55
2023-06-21T06:24:32.407Z,24.55
2023-06-21T06:29:41.688Z,24.76
2023-06-21T06:34:43.486Z,25.53
2023-06-21T06:39:46.581Z,25.83
2023-06-21T06:44:48.396Z,25.12
2023-06-21T06:49:50.020Z,25.81
2023-06-21T06:54:52.419Z,25.12
2023-06-21T06:59:54.088Z,25.50
2023-06-21T07:04:55.563Z,25.81
2023-06-21T07:09:58.855Z,26.59
2023-06-21T07:15:00.611Z,27.10
2023-06-21T07:20:02.394Z,26.64
2023-06-21T07:25:04.620Z,27.53
2023-06-21T07:30:07.252Z,29.00
2023-06-21T07:35:12.013Z,29.12
2023-06-21T07:40:14.591Z,28.60
2023-06-21T07:45:22.598Z,28.22
2023-06-21T07:50:24.188Z,27.38
2023-06-21T07:55:25.894Z,27.01
2023-06-21T08:00:27.807Z,28.49
2023-06-21T08:05:29.840Z,27.67
2023-06-21T08:10:31.670Z,26.40
2023-06-21T08:15:33.217Z,28.31
2023-06-21T08:20:34.997Z,31.10
2023-06-21T08:25:36.934Z,32.31
2023-06-21T08:47:22.813Z,31.80
2023-06-21T08:58:13.935Z,32.51
2023-06-21T09:09:21.611Z,30.83
2023-06-21T09:14:43.399Z,34.10
2023-06-21T09:20:06.972Z,34.55
2023-06-21T09:32:28.317Z,34.07
2023-06-21T09:37:52.549Z,34.22
2023-06-21T10:06:26.522Z,33.32
2023-06-21T10:29:25.436Z,37.47
2023-06-21T10:40:45.192Z,34.99
2023-06-21T11:02:47.348Z,35.16
2023-06-21T12:02:01.364Z,31.54
2023-06-21T12:13:44.443Z,32.45
2023-06-21T12:24:27.817Z,31.89
2023-06-21T12:29:38.661Z,32.06
2023-06-21T12:34:49.281Z,31.51
2023-06-21T13:03:14.928Z,32.20
2023-06-21T13:08:28.376Z,33.64
2023-06-21T13:19:53.136Z,32.11
2023-06-21T13:25:06.426Z,32.14
2023-06-21T14:24:42.996Z,33.72
2023-06-21T14:30:11.322Z,33.19
2023-06-21T14:41:19.778Z,33.11
2023-06-21T14:52:09.103Z,31.88
2023-06-21T15:19:45.723Z,32.71
2023-06-21T15:25:33.089Z,32.62
2023-06-21T15:42:20.444Z,32.54
2023-06-21T15:47:22.293Z,32.98
2023-06-21T15:58:07.453Z,33.03
2023-06-21T16:09:28.118Z,32.37
2023-06-21T16:14:48.872Z,32.30
2023-06-21T16:20:32.134Z,32.31
2023-06-21T16:31:53.825Z,31.66
2023-06-21T16:37:06.680Z,31.92
2023-06-21T16:42:24.478Z,31.93
2023-06-21T16:48:22.899Z,31.93
2023-06-21T17:00:38.731Z,31.94
2023-06-21T17:05:46.170Z,31.81
2023-06-21T17:11:08.901Z,32.11
2023-06-21T17:16:27.047Z,31.69
2023-06-21T17:21:28.729Z,31.67
2023-06-21T17:26:40.940Z,31.55
2023-06-21T17:31:49.785Z,31.26
2023-06-21T17:42:44.170Z,30.76
2023-06-21T17:47:46.414Z,30.58
2023-06-21T17:52:48.170Z,30.23
2023-06-21T17:57:49.922Z,30.03
2023-06-21T18:02:56.867Z,29.99
2023-06-21T18:08:04.386Z,29.78
2023-06-21T18:13:06.228Z,29.70
2023-06-21T18:18:11.216Z,29.41
2023-06-21T18:33:59.797Z,28.93
2023-06-21T18:39:06.077Z,28.66
2023-06-21T18:44:08.199Z,28.84
2023-06-21T18:49:13.247Z,28.79
2023-06-21T18:54:15.006Z,28.30
2023-06-21T18:59:27.960Z,28.24
2023-06-21T19:04:47.551Z,28.08
2023-06-21T19:09:52.162Z,28.04
2023-06-21T19:14:56.291Z,27.79
2023-06-21T19:19:58.757Z,27.65
2023-06-21T19:25:24.841Z,27.51
2023-06-21T19:30:29.549Z,27.34
2023-06-21T19:35:32.956Z,27.35
2023-06-21T19:40:34.880Z,27.22
2023-06-21T19:45:54.477Z,27.19
2023-06-21T19:51:01.193Z,27.03
2023-06-21T19:56:06.151Z,26.96
2023-06-21T20:01:08.240Z,26.89
2023-06-21T20:06:09.891Z,26.79
2023-06-21T20:11:17.445Z,26.67
2023-06-21T20:16:30.909Z,26.63
2023-06-21T20:21:46.306Z,26.45
2023-06-21T20:26:52.260Z,26.39
2023-06-21T20:31:56.208Z,26.25
2023-06-21T20:36:57.816Z,26.26
2023-06-21T20:42:03.050Z,26.19
2023-06-21T20:47:11.554Z,26.15
2023-06-21T20:52:16.497Z,26.10
2023-06-21T20:57:18.342Z,26.06
2023-06-21T21:02:24.219Z,25.91
2023-06-21T21:07:25.702Z,25.81
2023-06-21T21:12:43.585Z,25.66
2023-06-21T21:18:21.457Z,25.57
2023-06-21T21:23:27.552Z,25.32
2023-06-21T21:28:37.618Z,25.23
2023-06-21T21:33:41.573Z,25.16
2023-06-21T21:38:49.196Z,25.11
2023-06-21T21:44:03.473Z,24.98
2023-06-21T21:49:06.134Z,24.61
2023-06-21T21:54:10.561Z,24.60
2023-06-21T21:59:23.941Z,24.74
2023-06-21T22:04:38.834Z,24.80
2023-06-21T22:09:40.698Z,24.77
2023-06-21T22:14:42.407Z,24.68
2023-06-21T22:19:44.184Z,24.74
2023-06-21T22:24:46.145Z,24.74
2023-06-21T22:29:48.102Z,24.64
2023-06-21T22:34:52.857Z,24.66
2023-06-21T22:40:01.956Z,24.67
2023-06-21T22:45:22.230Z,24.64
2023-06-21T22:50:24.229Z,24.54
2023-06-21T22:55:26.133Z,24.58
2023-06-21T23:00:31.728Z,24.54
2023-06-21T23:10:59.246Z,24.40
2023-06-21T23:16:11.377Z,24.33
2023-06-21T23:21:13.952Z,24.32
2023-06-21T23:26:15.891Z,24.22
2023-06-21T23:31:22.524Z,24.30
2023-06-21T23:36:33.619Z,24.28
2023-06-21T23:41:35.757Z,24.16
2023-06-21T23:52:04.619Z,24.06
2023-06-21T23:57:08.627Z,24.08
